createdAt,value
2019-01-10T01:00:03.619Z,253.60
2019-01-10T01:37:56.870Z,260.83
2019-01-10T01:41:29.405Z,266.30
2019-01-10T01:57:52.324Z,235.77
2019-01-10T02:01:01.550Z,243.50
2019-01-10T02:04:47.892Z,244.67
2019-01-10T02:12:27.103Z,239.30
2019-01-10T02:15:32.971Z,263.70
2019-01-10T02:18:44.666Z,258.07
2019-01-10T03:29:51.509Z,196.23
2019-01-10T03:32:48.671Z,190.83
2019-01-10T03:35:44.411Z,186.57
2019-01-10T03:38:40.799Z,188.17
2019-01-10T03:41:48.490Z,187.70
2019-01-10T03:44:44.631Z,177.63
2019-01-10T03:47:40.842Z,184.03
2019-01-10T03:50:40.956Z,174.23
2019-01-10T03:53:37.616Z,178.90
2019-01-10T03:56:36.597Z,191.63
2019-01-10T03:59:34.367Z,182.90
2019-01-10T04:02:32.849Z,170.57
2019-01-10T04:05:30.121Z,178.47
2019-01-10T04:08:26.222Z,161.20
2019-01-10T04:11:22.361Z,171.60
2019-01-10T04:14:21.859Z,158.50
2019-01-10T04:17:21.746Z,172.33
2019-01-10T04:20:24.292Z,161.20
2019-01-10T04:23:18.934Z,171.27
2019-01-10T04:26:17.450Z,172.23
2019-01-10T04:29:13.981Z,148.50
2019-01-10T04:32:14.209Z,123.77
2019-01-10T04:35:12.078Z,147.00
2019-01-10T04:38:09.645Z,139.10
2019-01-10T04:41:10.586Z,142.50
2019-01-10T04:44:07.254Z,152.87
2019-01-10T04:47:43.704Z,155.30
2019-01-10T04:50:56.835Z,173.97
2019-01-10T04:53:47.318Z,148.23
2019-01-10T04:56:43.143Z,143.33
2019-01-10T04:59:52.236Z,136.53
2019-01-10T05:02:47.050Z,172.43
2019-01-10T05:05:49.064Z,169.53
2019-01-10T05:09:08.625Z,154.87
2019-01-10T05:12:08.134Z,148.03
2019-01-10T05:15:06.872Z,142.13
2019-01-10T05:18:08.591Z,151.07
2019-01-10T05:21:15.734Z,141.53
2019-01-10T05:24:19.746Z,142.40
2019-01-10T05:27:17.761Z,143.60
2019-01-10T05:30:35.385Z,135.80
2019-01-10T05:33:39.791Z,146.40
2019-01-10T05:36:40.789Z,131.13
2019-01-10T05:39:55.994Z,132.80
2019-01-10T05:43:05.272Z,138.17
2019-01-10T05:46:03.973Z,141.60
2019-01-10T05:49:01.940Z,139.77
2019-01-10T05:51:58.483Z,129.07
2019-01-10T05:55:02.957Z,125.73
2019-01-10T05:58:29.575Z,135.80
2019-01-10T06:02:17.183Z,122.27
2019-01-10T06:04:49.370Z,134.70
2019-01-10T06:07:50.559Z,152.40
2019-01-10T06:10:51.680Z,134.47
2019-01-10T06:13:54.560Z,143.43
2019-01-10T06:17:01.363Z,132.57
2019-01-10T06:27:38.917Z,135.30
2019-01-10T06:34:34.251Z,134.97
2019-01-10T06:37:43.261Z,129.40
2019-01-10T06:41:45.388Z,113.47
2019-01-10T06:44:50.788Z,111.27
2019-01-10T06:49:01.820Z,132.40
2019-01-10T06:52:38.197Z,115.47
2019-01-10T06:55:33.660Z,142.70
2019-01-10T06:59:11.632Z,128.13
2019-01-10T07:02:22.507Z,137.60
2019-01-10T07:05:24.533Z,134.60
2019-01-10T07:08:27.681Z,116.97
2019-01-10T07:11:30.180Z,131.23
2019-01-10T07:14:26.807Z,132.60
2019-01-10T07:17:24.988Z,132.63
2019-01-10T07:20:27.647Z,128.97
2019-01-10T07:24:13.098Z,129.17
2019-01-10T07:27:57.106Z,130.53
2019-01-10T07:30:53.445Z,124.53
2019-01-10T07:34:10.176Z,134.47
2019-01-10T07:37:12.965Z,125.07
2019-01-10T07:40:15.201Z,134.07
2019-01-10T07:43:26.144Z,131.17
2019-01-10T07:47:01.640Z,122.13
2019-01-10T07:50:23.163Z,132.10
2019-01-10T07:53:27.437Z,110.77
2019-01-10T07:56:38.565Z,120.90
2019-01-10T07:59:48.903Z,110.73
2019-01-10T08:03:12.723Z,118.40
2019-01-10T08:06:20.534Z,100.73
2019-01-10T08:13:51.914Z,121.63
2019-01-10T08:17:24.243Z,108.23
2019-01-10T08:24:17.232Z,113.17
2019-01-10T08:28:41.254Z,109.83
2019-01-10T08:35:49.075Z,103.50
2019-01-10T08:39:51.394Z,97.30
2019-01-10T08:50:56.081Z,95.70
2019-01-10T08:54:03.149Z,102.90
2019-01-10T08:57:15.307Z,104.07
2019-01-10T09:00:57.557Z,107.00
2019-01-10T09:04:15.756Z,99.87
2019-01-10T09:07:23.529Z,107.87
2019-01-10T09:10:52.950Z,101.00
2019-01-10T09:14:05.380Z,96.93
2019-01-10T09:17:13.194Z,101.37
2019-01-10T09:20:37.071Z,93.97
2019-01-10T09:23:43.265Z,100.80
2019-01-10T09:26:50.563Z,95.70
2019-01-10T09:37:41.700Z,94.27
2019-01-10T09:40:31.230Z,103.97
2019-01-10T09:43:27.943Z,107.97
2019-01-10T09:46:27.994Z,100.37
2019-01-10T09:49:24.850Z,100.37
2019-01-10T09:52:27.515Z,97.10
2019-01-10T09:55:23.524Z,106.17
2019-01-10T09:58:19.488Z,96.77
2019-01-10T10:01:20.598Z,103.30
2019-01-10T10:04:16.371Z,96.53
2019-01-10T10:07:16.656Z,99.53
2019-01-10T10:10:15.974Z,116.33
2019-01-10T10:13:12.159Z,109.03
2019-01-10T10:16:09.881Z,115.90
2019-01-10T10:19:06.135Z,106.40
2019-01-10T10:22:02.642Z,109.10
2019-01-10T10:25:03.468Z,110.57
2019-01-10T10:28:05.676Z,113.83
2019-01-10T10:30:59.595Z,110.63
2019-01-10T10:33:56.005Z,109.43
2019-01-10T10:36:52.070Z,119.97
2019-01-10T10:39:49.541Z,113.70
2019-01-10T10:42:46.171Z,103.00
2019-01-10T10:45:42.454Z,114.77
2019-01-10T10:48:38.419Z,115.53
2019-01-10T10:51:35.755Z,118.20
2019-01-10T10:54:34.809Z,117.37
2019-01-10T10:57:48.938Z,112.50
2019-01-10T11:01:08.739Z,111.93
2019-01-10T11:04:12.977Z,119.10
2019-01-10T11:07:12.421Z,119.40
2019-01-10T11:10:18.328Z,120.90
2019-01-10T11:13:16.683Z,117.40
2019-01-10T11:16:14.289Z,114.50
2019-01-10T11:19:12.906Z,124.97
2019-01-10T11:22:11.177Z,107.80
2019-01-10T11:25:10.782Z,110.27
2019-01-10T11:28:08.608Z,106.20
2019-01-10T11:31:17.478Z,103.47
2019-01-10T11:34:17.354Z,119.70
2019-01-10T11:37:16.625Z,111.73
2019-01-10T11:40:21.694Z,106.60
2019-01-10T11:43:18.913Z,118.03
2019-01-10T11:46:19.670Z,116.90
2019-01-10T11:49:22.300Z,112.73
2019-01-10T11:55:50.680Z,125.07
2019-01-10T11:58:47.328Z,109.77
2019-01-10T12:01:43.930Z,121.43
2019-01-10T12:04:42.483Z,121.60
2019-01-10T12:07:40.518Z,125.97
2019-01-10T12:10:42.194Z,123.30
2019-01-10T12:13:40.256Z,120.87
2019-01-10T12:16:46.897Z,127.67
2019-01-10T12:19:47.250Z,150.43
2019-01-10T12:22:45.020Z,160.17
2019-01-10T12:25:40.220Z,143.07
2019-01-10T12:28:36.687Z,155.53
2019-01-10T12:31:33.335Z,168.70
2019-01-10T12:34:29.355Z,155.67
2019-01-10T12:37:26.382Z,160.17
2019-01-10T12:40:23.102Z,164.13
2019-01-10T12:43:19.245Z,159.07
2019-01-10T12:46:16.443Z,182.27
2019-01-10T12:49:14.532Z,163.37
2019-01-10T12:52:11.895Z,172.43
2019-01-10T12:55:09.752Z,186.20
2019-01-10T12:58:06.295Z,166.37
2019-01-10T13:01:05.954Z,184.30
2019-01-10T13:04:05.684Z,157.67
2019-01-10T13:07:02.015Z,184.73
2019-01-10T13:09:57.725Z,178.87
2019-01-10T13:12:54.205Z,177.30
2019-01-10T13:15:50.705Z,176.33
2019-01-10T13:18:46.322Z,189.97
2019-01-10T13:21:44.604Z,178.83
2019-01-10T13:24:40.730Z,178.73
2019-01-10T13:27:37.474Z,170.20
2019-01-10T13:30:34.115Z,180.43
2019-01-10T13:33:30.049Z,190.23
2019-01-10T13:36:26.461Z,173.03
2019-01-10T13:39:22.288Z,167.33
2019-01-10T13:42:18.427Z,160.73
2019-01-10T13:45:17.659Z,172.27
2019-01-10T13:48:15.256Z,163.60
2019-01-10T13:51:11.229Z,145.60
2019-01-10T13:54:10.688Z,152.73
2019-01-10T13:57:05.225Z,157.40
2019-01-10T14:00:05.244Z,168.87
2019-01-10T14:03:01.469Z,138.97
2019-01-10T14:05:59.257Z,154.50
2019-01-10T14:08:55.575Z,145.87
2019-01-10T14:11:51.818Z,161.83
2019-01-10T14:14:48.118Z,147.63
2019-01-10T14:17:45.189Z,140.37
2019-01-10T14:20:41.737Z,159.67
2019-01-10T14:23:37.598Z,147.30
2019-01-10T14:26:36.418Z,154.27
2019-01-10T14:29:31.662Z,131.13
2019-01-10T14:32:28.596Z,134.93
2019-01-10T14:35:27.206Z,135.80
2019-01-10T14:38:24.470Z,163.73
2019-01-10T14:41:24.358Z,154.77
2019-01-10T14:44:20.383Z,148.80
2019-01-10T14:47:17.284Z,139.67
2019-01-10T14:50:13.770Z,142.30
2019-01-10T14:53:09.772Z,154.60
2019-01-10T14:56:05.623Z,170.60
2019-01-10T14:59:01.546Z,143.10
2019-01-10T15:01:57.067Z,139.73
2019-01-10T15:04:54.187Z,157.47
2019-01-10T15:07:50.553Z,153.43
2019-01-10T15:10:46.383Z,157.27
2019-01-10T15:13:42.067Z,156.90
2019-01-10T15:16:38.037Z,140.27
2019-01-10T15:19:34.053Z,144.70
2019-01-10T15:22:30.774Z,146.40
2019-01-10T15:25:26.710Z,137.37
2019-01-10T15:28:23.562Z,145.40
2019-01-10T15:31:21.650Z,142.03
2019-01-10T15:34:19.270Z,131.97
2019-01-10T15:37:18.043Z,121.90
2019-01-10T15:40:23.031Z,128.50
2019-01-10T15:43:19.883Z,134.53
2019-01-10T15:46:16.528Z,134.57
2019-01-10T15:49:12.743Z,135.63
2019-01-10T15:52:09.138Z,141.97
2019-01-10T15:55:07.455Z,138.63
2019-01-10T15:58:03.697Z,131.43
2019-01-10T16:00:59.922Z,154.40
2019-01-10T16:03:56.248Z,147.27
2019-01-10T16:06:58.120Z,136.17
2019-01-10T16:09:54.418Z,155.60
2019-01-10T16:12:50.174Z,138.10
2019-01-10T16:15:46.031Z,141.63
2019-01-10T16:18:57.836Z,145.97
2019-01-10T16:21:43.708Z,126.80
2019-01-10T16:24:39.815Z,128.23
2019-01-10T16:27:39.752Z,114.33
2019-01-10T16:30:39.806Z,133.80
2019-01-10T16:33:35.465Z,131.10
2019-01-10T16:36:31.186Z,127.67
2019-01-10T16:39:27.311Z,128.93
2019-01-10T16:42:23.560Z,113.80
2019-01-10T16:45:39.911Z,131.00
2019-01-10T16:48:35.772Z,129.57
2019-01-10T16:51:31.790Z,113.70
2019-01-10T16:54:28.745Z,137.50
2019-01-10T16:57:24.267Z,132.60
2019-01-10T17:00:29.471Z,116.37
2019-01-10T17:03:25.242Z,120.60
2019-01-10T17:06:21.763Z,147.23
2019-01-10T17:09:17.777Z,132.90
2019-01-10T17:12:13.907Z,128.83
2019-01-10T17:15:10.140Z,134.10
2019-01-10T17:18:06.284Z,138.97
2019-01-10T17:21:02.312Z,140.60
2019-01-10T17:23:59.446Z,171.53
2019-01-10T17:26:54.691Z,161.20
2019-01-10T17:29:56.285Z,150.33
2019-01-10T17:32:49.840Z,129.77
2019-01-10T17:35:46.744Z,150.70
2019-01-10T17:38:45.432Z,145.43
2019-01-10T17:41:42.691Z,149.70
2019-01-10T17:44:38.768Z,120.30
2019-01-10T17:47:44.144Z,112.83
2019-01-10T17:50:38.654Z,140.30
2019-01-10T17:53:34.895Z,137.43
2019-01-10T17:56:32.714Z,137.70
2019-01-10T17:59:28.272Z,130.43
2019-01-10T18:02:23.893Z,121.93
2019-01-10T18:05:19.250Z,133.10
2019-01-10T18:08:14.907Z,128.00
2019-01-10T18:11:10.563Z,133.63
2019-01-10T18:14:06.005Z,145.73
2019-01-10T18:17:01.767Z,129.80
2019-01-10T18:19:57.286Z,140.00
2019-01-10T18:22:53.105Z,148.93
2019-01-10T18:25:56.023Z,128.97
2019-01-10T18:28:51.811Z,137.43
2019-01-10T18:31:47.931Z,147.80
2019-01-10T18:34:45.077Z,134.97
2019-01-10T18:37:43.999Z,117.63
2019-01-10T18:40:45.359Z,161.07
2019-01-10T18:43:39.725Z,143.37
2019-01-10T18:46:36.694Z,126.77
2019-01-10T18:49:32.123Z,142.13
2019-01-10T18:52:27.797Z,171.47
2019-01-10T18:55:24.334Z,146.53
2019-01-10T18:58:19.801Z,160.13
2019-01-10T19:01:15.567Z,144.50
2019-01-10T19:04:11.718Z,143.23
2019-01-10T19:07:10.279Z,128.80
2019-01-10T19:10:05.767Z,125.53
2019-01-10T19:13:01.331Z,121.53
2019-01-10T19:15:59.593Z,128.57
2019-01-10T19:18:55.385Z,132.30
2019-01-10T19:21:51.263Z,133.70
2019-01-10T19:24:50.240Z,112.13
2019-01-10T19:27:46.583Z,118.83
2019-01-10T19:30:46.052Z,135.23
2019-01-10T19:33:41.658Z,117.13
2019-01-10T19:36:37.508Z,117.63
2019-01-10T19:39:32.828Z,112.30
2019-01-10T19:42:28.769Z,112.63
2019-01-10T19:45:26.433Z,120.67
2019-01-10T19:48:23.085Z,109.73
2019-01-10T19:51:18.354Z,131.73
2019-01-10T19:54:14.115Z,125.87
2019-01-10T19:57:09.691Z,122.83
2019-01-10T20:00:05.342Z,120.23
2019-01-10T20:03:01.095Z,112.70
2019-01-10T20:05:57.160Z,124.53
2019-01-10T20:08:52.999Z,123.37
2019-01-10T20:11:50.682Z,111.07
2019-01-10T20:14:46.922Z,128.17
2019-01-10T20:17:42.533Z,122.43
2019-01-10T20:20:43.655Z,125.60
2019-01-10T20:23:41.552Z,114.50
2019-01-10T20:26:39.641Z,122.07
2019-01-10T20:29:35.641Z,118.03
2019-01-10T20:32:31.795Z,111.60
2019-01-10T20:35:27.698Z,121.30
2019-01-10T20:38:23.390Z,110.63
2019-01-10T20:41:19.255Z,112.27
2019-01-10T20:44:15.476Z,109.77
2019-01-10T20:47:11.579Z,100.90
2019-01-10T20:50:07.816Z,102.50
2019-01-10T20:53:03.923Z,118.07
2019-01-10T20:55:59.407Z,107.63
2019-01-10T20:58:54.184Z,122.40
2019-01-10T21:01:49.781Z,115.60
2019-01-10T21:04:45.377Z,110.37
2019-01-10T21:07:41.285Z,107.80
2019-01-10T21:10:37.613Z,112.23
2019-01-10T21:13:32.977Z,131.50
2019-01-10T21:16:28.457Z,149.97
2019-01-10T21:19:24.189Z,106.53
2019-01-10T21:22:20.112Z,103.07
2019-01-10T21:25:16.587Z,123.47
2019-01-10T21:28:12.396Z,110.60
2019-01-10T21:31:08.524Z,135.67
2019-01-10T21:34:05.345Z,135.17
2019-01-10T21:37:00.750Z,128.53
2019-01-10T21:39:56.809Z,124.80
2019-01-10T21:42:54.347Z,126.20
2019-01-10T21:45:49.864Z,131.53
2019-01-10T21:48:45.566Z,127.40
2019-01-10T21:51:41.401Z,117.50
2019-01-10T21:54:38.279Z,121.00
2019-01-10T21:57:34.198Z,133.57
2019-01-10T22:00:33.609Z,125.87
2019-01-10T22:03:29.575Z,112.00
2019-01-10T22:06:25.641Z,116.17
2019-01-10T22:09:21.969Z,140.77
2019-01-10T22:12:17.348Z,127.23
2019-01-10T22:15:14.272Z,133.77
2019-01-10T22:18:10.031Z,128.87
2019-01-10T22:21:06.609Z,132.13
2019-01-10T22:24:02.329Z,133.77
2019-01-10T22:26:58.366Z,129.27
2019-01-10T22:29:54.007Z,143.80
2019-01-10T22:32:50.095Z,137.00
2019-01-10T22:35:45.634Z,139.40
2019-01-10T22:38:41.265Z,135.97
2019-01-10T22:41:36.851Z,145.10
2019-01-10T22:44:32.765Z,135.80
2019-01-10T22:47:28.599Z,140.03
2019-01-10T22:50:25.795Z,132.87
2019-01-10T22:53:22.831Z,141.03
2019-01-10T22:56:18.594Z,132.70
2019-01-10T22:59:14.764Z,139.77
2019-01-10T23:02:11.672Z,147.17
2019-01-10T23:05:08.547Z,146.50
2019-01-10T23:08:04.268Z,146.03
2019-01-10T23:11:00.452Z,154.43
2019-01-10T23:14:06.153Z,154.17
2019-01-10T23:17:01.942Z,153.50
2019-01-10T23:19:59.361Z,156.23
2019-01-10T23:22:55.954Z,167.73
2019-01-10T23:25:56.895Z,168.40
2019-01-10T23:28:52.709Z,177.27
2019-01-10T23:31:48.529Z,177.77
2019-01-10T23:34:46.831Z,158.17
2019-01-10T23:37:42.393Z,161.50
2019-01-10T23:40:37.975Z,145.33
2019-01-10T23:43:33.784Z,150.83
2019-01-10T23:46:29.111Z,176.63
2019-01-10T23:49:24.924Z,178.23
2019-01-10T23:52:20.513Z,183.43
2019-01-10T23:55:16.314Z,190.93
2019-01-10T23:58:12.221Z,161.33
